sensor_id;sensor_type;location;lat;lon;timestamp;P1;durP1;ratioP1;P2;durP2;ratioP2
70157;SDS011;57524;48.312;7.938;2022-09-09T00:01:26;4.22;;;1.40;;
70157;SDS011;57524;48.312;7.938;2022-09-09T00:04:00;6.53;;;1.45;;
70157;SDS011;57524;48.312;7.938;2022-09-09T00:06:32;5.70;;;1.52;;
70157;SDS011;57524;48.312;7.938;2022-09-09T00:09:02;5.85;;;1.65;;
70157;SDS011;57524;48.312;7.938;2022-09-09T00:11:40;7.55;;;1.90;;
70157;SDS011;57524;48.312;7.938;2022-09-09T00:14:13;5.50;;;2.17;;
70157;SDS011;57524;48.312;7.938;2022-09-09T00:16:51;6.30;;;2.30;;
70157;SDS011;57524;48.312;7.938;2022-09-09T00:19:22;5.93;;;2.00;;
70157;SDS011;57524;48.312;7.938;2022-09-09T00:21:58;5.25;;;2.22;;
70157;SDS011;57524;48.312;7.938;2022-09-09T00:24:37;7.20;;;2.15;;
70157;SDS011;57524;48.312;7.938;2022-09-09T00:27:09;5.80;;;1.90;;
70157;SDS011;57524;48.312;7.938;2022-09-09T00:29:43;6.93;;;1.98;;
70157;SDS011;57524;48.312;7.938;2022-09-09T00:32:14;6.65;;;1.90;;
70157;SDS011;57524;48.312;7.938;2022-09-09T00:34:50;4.05;;;1.52;;
70157;SDS011;57524;48.312;7.938;2022-09-09T00:37:41;4.38;;;1.60;;
70157;SDS011;57524;48.312;7.938;2022-09-09T00:40:24;4.25;;;1.63;;
70157;SDS011;57524;48.312;7.938;2022-09-09T00:43:04;4.85;;;1.70;;
70157;SDS011;57524;48.312;7.938;2022-09-09T00:48:59;5.28;;;1.63;;
70157;SDS011;57524;48.312;7.938;2022-09-09T00:51:40;5.80;;;1.63;;
70157;SDS011;57524;48.312;7.938;2022-09-09T00:54:33;5.80;;;1.40;;
70157;SDS011;57524;48.312;7.938;2022-09-09T00:57:13;4.13;;;1.30;;
70157;SDS011;57524;48.312;7.938;2022-09-09T01:00:00;4.32;;;1.40;;
70157;SDS011;57524;48.312;7.938;2022-09-09T01:02:45;4.60;;;1.40;;
70157;SDS011;57524;48.312;7.938;2022-09-09T01:05:33;4.65;;;1.55;;
70157;SDS011;57524;48.312;7.938;2022-09-09T01:08:09;4.85;;;1.40;;
70157;SDS011;57524;48.312;7.938;2022-09-09T01:11:05;3.97;;;1.20;;
70157;SDS011;57524;48.312;7.938;2022-09-09T01:14:22;4.80;;;1.13;;
70157;SDS011;57524;48.312;7.938;2022-09-09T01:17:08;4.25;;;1.10;;
70157;SDS011;57524;48.312;7.938;2022-09-09T01:19:47;4.90;;;1.20;;
70157;SDS011;57524;48.312;7.938;2022-09-09T01:22:26;4.30;;;0.95;;
70157;SDS011;57524;48.312;7.938;2022-09-09T01:25:15;4.95;;;0.93;;
70157;SDS011;57524;48.312;7.938;2022-09-09T01:28:04;4.05;;;0.90;;
70157;SDS011;57524;48.312;7.938;2022-09-09T01:30:47;4.07;;;0.90;;
70157;SDS011;57524;48.312;7.938;2022-09-09T01:34:26;6.43;;;1.10;;
70157;SDS011;57524;48.312;7.938;2022-09-09T01:37:20;4.97;;;1.13;;
70157;SDS011;57524;48.312;7.938;2022-09-09T01:40:19;4.45;;;1.00;;
70157;SDS011;57524;48.312;7.938;2022-09-09T01:50:10;3.92;;;1.00;;
70157;SDS011;57524;48.312;7.938;2022-09-09T01:52:59;4.50;;;1.00;;
70157;SDS011;57524;48.312;7.938;2022-09-09T01:55:32;4.05;;;0.98;;
70157;SDS011;57524;48.312;7.938;2022-09-09T01:58:08;2.90;;;0.90;;
70157;SDS011;57524;48.312;7.938;2022-09-09T02:00:50;3.97;;;1.10;;
70157;SDS011;57524;48.312;7.938;2022-09-09T02:03:25;3.45;;;0.80;;
70157;SDS011;57524;48.312;7.938;2022-09-09T02:06:03;4.40;;;0.98;;
70157;SDS011;57524;48.312;7.938;2022-09-09T02:08:36;2.92;;;0.80;;
70157;SDS011;57524;48.312;7.938;2022-09-09T02:11:11;2.75;;;0.75;;
70157;SDS011;57524;48.312;7.938;2022-09-09T02:13:45;3.20;;;0.90;;
70157;SDS011;57524;48.312;7.938;2022-09-09T02:16:16;3.65;;;0.80;;
70157;SDS011;57524;48.312;7.938;2022-09-09T02:18:59;3.58;;;0.77;;
70157;SDS011;57524;48.312;7.938;2022-09-09T02:22:34;3.42;;;0.73;;
70157;SDS011;57524;48.312;7.938;2022-09-09T02:25:06;3.13;;;0.80;;
70157;SDS011;57524;48.312;7.938;2022-09-09T02:27:36;3.00;;;0.73;;
70157;SDS011;57524;48.312;7.938;2022-09-09T02:30:03;4.28;;;0.88;;
70157;SDS011;57524;48.312;7.938;2022-09-09T02:32:48;3.00;;;0.70;;
70157;SDS011;57524;48.312;7.938;2022-09-09T02:35:39;5.05;;;0.80;;
70157;SDS011;57524;48.312;7.938;2022-09-09T02:38:17;4.22;;;0.80;;
70157;SDS011;57524;48.312;7.938;2022-09-09T02:40:55;3.80;;;0.82;;
70157;SDS011;57524;48.312;7.938;2022-09-09T02:43:23;4.82;;;0.90;;
70157;SDS011;57524;48.312;7.938;2022-09-09T02:45:51;3.53;;;0.98;;
70157;SDS011;57524;48.312;7.938;2022-09-09T02:48:29;5.38;;;0.90;;
70157;SDS011;57524;48.312;7.938;2022-09-09T02:51:15;4.55;;;0.98;;
70157;SDS011;57524;48.312;7.938;2022-09-09T02:53:49;3.42;;;1.10;;
70157;SDS011;57524;48.312;7.938;2022-09-09T02:56:23;4.82;;;1.30;;
70157;SDS011;57524;48.312;7.938;2022-09-09T02:58:54;4.95;;;1.40;;
70157;SDS011;57524;48.312;7.938;2022-09-09T03:01:22;3.97;;;1.42;;
70157;SDS011;57524;48.312;7.938;2022-09-09T03:03:49;6.85;;;2.10;;
70157;SDS011;57524;48.312;7.938;2022-09-09T03:06:18;6.90;;;2.67;;
70157;SDS011;57524;48.312;7.938;2022-09-09T03:08:50;8.00;;;2.55;;
70157;SDS011;57524;48.312;7.938;2022-09-09T03:11:22;7.07;;;2.20;;
70157;SDS011;57524;48.312;7.938;2022-09-09T03:13:49;7.55;;;2.42;;
70157;SDS011;57524;48.312;7.938;2022-09-09T03:16:16;6.88;;;2.55;;
70157;SDS011;57524;48.312;7.938;2022-09-09T03:18:47;6.35;;;2.20;;
70157;SDS011;57524;48.312;7.938;2022-09-09T03:21:14;5.78;;;2.00;;
70157;SDS011;57524;48.312;7.938;2022-09-09T03:23:42;5.38;;;1.90;;
70157;SDS011;57524;48.312;7.938;2022-09-09T03:26:10;6.28;;;1.80;;
70157;SDS011;57524;48.312;7.938;2022-09-09T03:28:41;5.10;;;1.40;;
70157;SDS011;57524;48.312;7.938;2022-09-09T03:31:10;4.90;;;1.55;;
70157;SDS011;57524;48.312;7.938;2022-09-09T03:33:40;5.95;;;1.58;;
70157;SDS011;57524;48.312;7.938;2022-09-09T03:36:10;4.53;;;1.60;;
70157;SDS011;57524;48.312;7.938;2022-09-09T03:38:37;5.45;;;1.70;;
70157;SDS011;57524;48.312;7.938;2022-09-09T03:41:16;6.18;;;1.27;;
70157;SDS011;57524;48.312;7.938;2022-09-09T03:43:44;4.55;;;1.30;;
70157;SDS011;57524;48.312;7.938;2022-09-09T03:46:10;4.28;;;1.20;;
70157;SDS011;57524;48.312;7.938;2022-09-09T03:48:45;5.75;;;1.50;;
70157;SDS011;57524;48.312;7.938;2022-09-09T03:51:12;3.85;;;1.45;;
70157;SDS011;57524;48.312;7.938;2022-09-09T03:53:40;4.82;;;1.20;;
70157;SDS011;57524;48.312;7.938;2022-09-09T03:56:09;5.95;;;1.10;;
70157;SDS011;57524;48.312;7.938;2022-09-09T03:58:37;4.00;;;1.00;;
70157;SDS011;57524;48.312;7.938;2022-09-09T04:01:07;4.43;;;1.13;;
70157;SDS011;57524;48.312;7.938;2022-09-09T04:03:36;4.10;;;1.30;;
70157;SDS011;57524;48.312;7.938;2022-09-09T04:06:03;4.05;;;1.30;;
70157;SDS011;57524;48.312;7.938;2022-09-09T04:08:32;4.75;;;1.00;;
70157;SDS011;57524;48.312;7.938;2022-09-09T04:11:01;5.18;;;1.55;;
70157;SDS011;57524;48.312;7.938;2022-09-09T04:13:33;3.22;;;1.10;;
70157;SDS011;57524;48.312;7.938;2022-09-09T04:16:01;4.30;;;1.30;;
70157;SDS011;57524;48.312;7.938;2022-09-09T04:18:33;4.55;;;1.20;;
70157;SDS011;57524;48.312;7.938;2022-09-09T04:21:00;3.10;;;1.00;;
70157;SDS011;57524;48.312;7.938;2022-09-09T04:23:29;3.30;;;1.10;;
70157;SDS011;57524;48.312;7.938;2022-09-09T04:25:57;6.18;;;1.23;;
70157;SDS011;57524;48.312;7.938;2022-09-09T04:28:26;4.13;;;1.23;;
70157;SDS011;57524;48.312;7.938;2022-09-09T04:30:55;4.50;;;1.15;;
70157;SDS011;57524;48.312;7.938;2022-09-09T04:33:23;4.30;;;1.13;;
70157;SDS011;57524;48.312;7.938;2022-09-09T04:35:52;3.67;;;1.05;;
70157;SDS011;57524;48.312;7.938;2022-09-09T04:38:22;4.03;;;1.10;;
70157;SDS011;57524;48.312;7.938;2022-09-09T04:40:50;5.47;;;1.13;;
70157;SDS011;57524;48.312;7.938;2022-09-09T04:43:19;4.55;;;1.10;;
70157;SDS011;57524;48.312;7.938;2022-09-09T04:45:47;5.18;;;1.00;;
70157;SDS011;57524;48.312;7.938;2022-09-09T04:48:19;3.20;;;1.15;;
70157;SDS011;57524;48.312;7.938;2022-09-09T04:50:54;4.53;;;1.10;;
70157;SDS011;57524;48.312;7.938;2022-09-09T04:53:22;3.95;;;1.25;;
70157;SDS011;57524;48.312;7.938;2022-09-09T04:55:51;4.00;;;1.30;;
70157;SDS011;57524;48.312;7.938;2022-09-09T04:58:18;4.25;;;1.50;;
70157;SDS011;57524;48.312;7.938;2022-09-09T05:00:47;4.70;;;1.27;;
70157;SDS011;57524;48.312;7.938;2022-09-09T05:03:14;4.03;;;1.10;;
70157;SDS011;57524;48.312;7.938;2022-09-09T05:05:42;6.07;;;1.45;;
70157;SDS011;57524;48.312;7.938;2022-09-09T05:08:09;4.47;;;1.10;;
70157;SDS011;57524;48.312;7.938;2022-09-09T05:10:37;4.47;;;1.20;;
70157;SDS011;57524;48.312;7.938;2022-09-09T05:13:07;5.55;;;1.38;;
70157;SDS011;57524;48.312;7.938;2022-09-09T05:15:34;3.63;;;1.23;;
70157;SDS011;57524;48.312;7.938;2022-09-09T05:18:01;7.07;;;1.55;;
70157;SDS011;57524;48.312;7.938;2022-09-09T05:20:31;3.75;;;1.27;;
70157;SDS011;57524;48.312;7.938;2022-09-09T05:22:59;6.70;;;1.30;;
70157;SDS011;57524;48.312;7.938;2022-09-09T05:25:28;5.47;;;1.40;;
70157;SDS011;57524;48.312;7.938;2022-09-09T05:27:55;4.32;;;1.45;;
70157;SDS011;57524;48.312;7.938;2022-09-09T05:30:22;5.65;;;1.58;;
70157;SDS011;57524;48.312;7.938;2022-09-09T05:32:51;4.82;;;1.50;;
70157;SDS011;57524;48.312;7.938;2022-09-09T05:35:18;4.32;;;1.20;;
70157;SDS011;57524;48.312;7.938;2022-09-09T05:37:46;4.13;;;1.30;;
70157;SDS011;57524;48.312;7.938;2022-09-09T05:40:14;5.00;;;1.42;;
70157;SDS011;57524;48.312;7.938;2022-09-09T05:42:41;4.78;;;1.52;;
70157;SDS011;57524;48.312;7.938;2022-09-09T05:45:08;3.65;;;1.10;;
70157;SDS011;57524;48.312;7.938;2022-09-09T05:47:37;5.00;;;1.40;;
70157;SDS011;57524;48.312;7.938;2022-09-09T05:50:06;5.00;;;1.60;;
70157;SDS011;57524;48.312;7.938;2022-09-09T05:52:33;5.15;;;1.35;;
70157;SDS011;57524;48.312;7.938;2022-09-09T05:55:01;4.20;;;1.48;;
70157;SDS011;57524;48.312;7.938;2022-09-09T05:57:30;5.88;;;1.35;;
70157;SDS011;57524;48.312;7.938;2022-09-09T05:59:57;4.50;;;1.27;;
70157;SDS011;57524;48.312;7.938;2022-09-09T06:02:24;5.40;;;1.70;;
70157;SDS011;57524;48.312;7.938;2022-09-09T06:04:51;4.55;;;1.48;;
70157;SDS011;57524;48.312;7.938;2022-09-09T06:07:18;5.25;;;1.90;;
70157;SDS011;57524;48.312;7.938;2022-09-09T06:09:45;5.68;;;1.90;;
70157;SDS011;57524;48.312;7.938;2022-09-09T06:12:12;5.32;;;1.90;;
70157;SDS011;57524;48.312;7.938;2022-09-09T06:14:40;5.57;;;1.98;;
70157;SDS011;57524;48.312;7.938;2022-09-09T06:17:07;8.07;;;2.90;;
70157;SDS011;57524;48.312;7.938;2022-09-09T06:19:35;7.43;;;2.40;;
70157;SDS011;57524;48.312;7.938;2022-09-09T06:22:02;8.45;;;2.50;;
70157;SDS011;57524;48.312;7.938;2022-09-09T06:24:31;6.35;;;2.42;;
70157;SDS011;57524;48.312;7.938;2022-09-09T06:26:59;6.53;;;2.60;;
70157;SDS011;57524;48.312;7.938;2022-09-09T06:29:30;8.57;;;2.90;;
70157;SDS011;57524;48.312;7.938;2022-09-09T06:31:58;8.48;;;3.88;;
70157;SDS011;57524;48.312;7.938;2022-09-09T06:34:26;10.00;;;4.40;;
70157;SDS011;57524;48.312;7.938;2022-09-09T06:36:55;10.77;;;4.85;;
70157;SDS011;57524;48.312;7.938;2022-09-09T06:39:24;12.32;;;4.93;;
70157;SDS011;57524;48.312;7.938;2022-09-09T06:41:51;9.57;;;4.15;;
70157;SDS011;57524;48.312;7.938;2022-09-09T06:44:38;8.55;;;3.03;;
70157;SDS011;57524;48.312;7.938;2022-09-09T06:47:09;9.60;;;2.95;;
70157;SDS011;57524;48.312;7.938;2022-09-09T06:49:37;7.38;;;3.35;;
70157;SDS011;57524;48.312;7.938;2022-09-09T06:52:07;7.35;;;3.00;;
70157;SDS011;57524;48.312;7.938;2022-09-09T06:54:34;5.97;;;2.80;;
70157;SDS011;57524;48.312;7.938;2022-09-09T06:57:03;6.75;;;2.30;;
70157;SDS011;57524;48.312;7.938;2022-09-09T06:59:32;5.68;;;2.10;;
70157;SDS011;57524;48.312;7.938;2022-09-09T07:01:59;5.05;;;1.70;;
70157;SDS011;57524;48.312;7.938;2022-09-09T07:04:29;6.75;;;1.50;;
70157;SDS011;57524;48.312;7.938;2022-09-09T07:06:56;6.30;;;1.30;;
70157;SDS011;57524;48.312;7.938;2022-09-09T07:09:24;3.85;;;1.10;;
70157;SDS011;57524;48.312;7.938;2022-09-09T07:11:52;3.97;;;1.08;;
70157;SDS011;57524;48.312;7.938;2022-09-09T07:14:21;5.10;;;1.10;;
70157;SDS011;57524;48.312;7.938;2022-09-09T07:16:53;5.07;;;1.13;;
70157;SDS011;57524;48.312;7.938;2022-09-09T07:19:20;4.63;;;1.20;;
70157;SDS011;57524;48.312;7.938;2022-09-09T07:21:51;3.53;;;1.13;;
70157;SDS011;57524;48.312;7.938;2022-09-09T07:24:21;6.78;;;1.10;;
70157;SDS011;57524;48.312;7.938;2022-09-09T07:26:47;3.83;;;1.00;;
70157;SDS011;57524;48.312;7.938;2022-09-09T07:29:14;5.88;;;1.30;;
70157;SDS011;57524;48.312;7.938;2022-09-09T07:31:41;5.15;;;1.20;;
70157;SDS011;57524;48.312;7.938;2022-09-09T07:34:12;3.20;;;1.05;;
70157;SDS011;57524;48.312;7.938;2022-09-09T07:36:40;3.65;;;1.15;;
70157;SDS011;57524;48.312;7.938;2022-09-09T07:39:11;6.15;;;1.48;;
70157;SDS011;57524;48.312;7.938;2022-09-09T07:41:42;4.18;;;1.30;;
70157;SDS011;57524;48.312;7.938;2022-09-09T07:44:12;4.90;;;1.27;;
70157;SDS011;57524;48.312;7.938;2022-09-09T07:46:42;4.63;;;0.93;;
70157;SDS011;57524;48.312;7.938;2022-09-09T07:49:10;5.95;;;1.20;;
70157;SDS011;57524;48.312;7.938;2022-09-09T07:51:38;5.75;;;1.10;;
70157;SDS011;57524;48.312;7.938;2022-09-09T07:54:07;4.93;;;1.15;;
70157;SDS011;57524;48.312;7.938;2022-09-09T07:56:39;4.05;;;1.10;;
70157;SDS011;57524;48.312;7.938;2022-09-09T07:59:08;5.03;;;1.27;;
70157;SDS011;57524;48.312;7.938;2022-09-09T08:01:37;4.50;;;1.10;;
70157;SDS011;57524;48.312;7.938;2022-09-09T08:04:07;6.93;;;1.17;;
70157;SDS011;57524;48.312;7.938;2022-09-09T08:06:36;4.82;;;1.25;;
70157;SDS011;57524;48.312;7.938;2022-09-09T08:09:06;4.85;;;1.00;;
70157;SDS011;57524;48.312;7.938;2022-09-09T08:11:34;7.53;;;1.20;;
70157;SDS011;57524;48.312;7.938;2022-09-09T08:14:03;4.75;;;1.15;;
70157;SDS011;57524;48.312;7.938;2022-09-09T08:16:31;5.60;;;1.17;;
70157;SDS011;57524;48.312;7.938;2022-09-09T08:19:02;5.15;;;1.02;;
70157;SDS011;57524;48.312;7.938;2022-09-09T08:21:30;4.10;;;1.00;;
70157;SDS011;57524;48.312;7.938;2022-09-09T08:24:00;5.90;;;1.10;;
70157;SDS011;57524;48.312;7.938;2022-09-09T08:26:28;5.60;;;1.15;;
70157;SDS011;57524;48.312;7.938;2022-09-09T08:28:56;4.40;;;1.10;;
70157;SDS011;57524;48.312;7.938;2022-09-09T08:31:27;6.10;;;0.98;;
70157;SDS011;57524;48.312;7.938;2022-09-09T08:33:57;6.43;;;1.25;;
70157;SDS011;57524;48.312;7.938;2022-09-09T08:36:26;4.55;;;1.00;;
70157;SDS011;57524;48.312;7.938;2022-09-09T08:38:54;4.43;;;1.00;;
70157;SDS011;57524;48.312;7.938;2022-09-09T08:41:29;4.93;;;1.20;;
70157;SDS011;57524;48.312;7.938;2022-09-09T08:44:02;5.03;;;1.20;;
70157;SDS011;57524;48.312;7.938;2022-09-09T08:46:36;4.22;;;1.20;;
70157;SDS011;57524;48.312;7.938;2022-09-09T08:49:14;5.05;;;1.10;;
70157;SDS011;57524;48.312;7.938;2022-09-09T08:51:47;4.30;;;1.10;;
70157;SDS011;57524;48.312;7.938;2022-09-09T08:54:15;4.35;;;1.05;;
70157;SDS011;57524;48.312;7.938;2022-09-09T08:56:44;5.00;;;1.05;;
70157;SDS011;57524;48.312;7.938;2022-09-09T08:59:12;5.05;;;1.00;;
70157;SDS011;57524;48.312;7.938;2022-09-09T09:01:53;5.55;;;1.17;;
70157;SDS011;57524;48.312;7.938;2022-09-09T09:04:45;3.92;;;1.10;;
70157;SDS011;57524;48.312;7.938;2022-09-09T09:07:25;5.78;;;1.00;;
70157;SDS011;57524;48.312;7.938;2022-09-09T09:10:08;4.85;;;1.20;;
70157;SDS011;57524;48.312;7.938;2022-09-09T09:12:43;5.03;;;1.10;;
70157;SDS011;57524;48.312;7.938;2022-09-09T09:15:16;5.80;;;1.10;;
70157;SDS011;57524;48.312;7.938;2022-09-09T09:17:49;6.63;;;1.30;;
70157;SDS011;57524;48.312;7.938;2022-09-09T09:20:18;4.25;;;0.80;;
70157;SDS011;57524;48.312;7.938;2022-09-09T09:22:51;6.30;;;1.00;;
70157;SDS011;57524;48.312;7.938;2022-09-09T09:25:22;4.97;;;1.10;;
70157;SDS011;57524;48.312;7.938;2022-09-09T09:27:52;6.28;;;1.23;;
70157;SDS011;57524;48.312;7.938;2022-09-09T09:30:28;4.50;;;1.20;;
70157;SDS011;57524;48.312;7.938;2022-09-09T09:33:06;5.13;;;1.10;;
70157;SDS011;57524;48.312;7.938;2022-09-09T09:35:41;4.25;;;0.50;;
70157;SDS011;57524;48.312;7.938;2022-09-09T09:38:11;3.22;;;0.70;;
70157;SDS011;57524;48.312;7.938;2022-09-09T09:40:50;4.80;;;0.80;;
70157;SDS011;57524;48.312;7.938;2022-09-09T09:43:24;5.82;;;1.00;;
70157;SDS011;57524;48.312;7.938;2022-09-09T09:45:53;5.13;;;0.80;;
70157;SDS011;57524;48.312;7.938;2022-09-09T09:48:21;3.78;;;0.75;;
70157;SDS011;57524;48.312;7.938;2022-09-09T09:50:49;4.60;;;0.80;;
70157;SDS011;57524;48.312;7.938;2022-09-09T09:53:22;5.03;;;0.80;;
70157;SDS011;57524;48.312;7.938;2022-09-09T09:55:53;4.18;;;0.90;;
70157;SDS011;57524;48.312;7.938;2022-09-09T09:58:24;5.25;;;0.90;;
70157;SDS011;57524;48.312;7.938;2022-09-09T10:00:53;3.90;;;0.77;;
70157;SDS011;57524;48.312;7.938;2022-09-09T10:03:26;3.55;;;0.70;;
70157;SDS011;57524;48.312;7.938;2022-09-09T10:05:56;3.38;;;0.65;;
70157;SDS011;57524;48.312;7.938;2022-09-09T10:08:24;4.72;;;0.80;;
70157;SDS011;57524;48.312;7.938;2022-09-09T10:11:02;5.72;;;0.90;;
70157;SDS011;57524;48.312;7.938;2022-09-09T10:13:44;6.43;;;1.02;;
70157;SDS011;57524;48.312;7.938;2022-09-09T10:16:25;4.70;;;0.90;;
70157;SDS011;57524;48.312;7.938;2022-09-09T10:19:06;3.85;;;0.85;;
70157;SDS011;57524;48.312;7.938;2022-09-09T10:24:41;4.18;;;0.93;;
70157;SDS011;57524;48.312;7.938;2022-09-09T10:27:22;6.20;;;0.90;;
70157;SDS011;57524;48.312;7.938;2022-09-09T10:29:59;6.57;;;0.98;;
70157;SDS011;57524;48.312;7.938;2022-09-09T10:32:38;3.85;;;0.82;;
70157;SDS011;57524;48.312;7.938;2022-09-09T10:35:14;4.47;;;1.00;;
70157;SDS011;57524;48.312;7.938;2022-09-09T10:37:54;3.67;;;0.85;;
70157;SDS011;57524;48.312;7.938;2022-09-09T10:40:42;3.70;;;1.00;;
70157;SDS011;57524;48.312;7.938;2022-09-09T10:43:23;4.25;;;0.90;;
70157;SDS011;57524;48.312;7.938;2022-09-09T10:46:06;4.70;;;1.10;;
70157;SDS011;57524;48.312;7.938;2022-09-09T10:48:45;3.72;;;0.90;;
70157;SDS011;57524;48.312;7.938;2022-09-09T10:51:28;3.08;;;1.00;;
70157;SDS011;57524;48.312;7.938;2022-09-09T10:54:09;4.28;;;1.08;;
70157;SDS011;57524;48.312;7.938;2022-09-09T10:56:48;4.18;;;0.90;;
70157;SDS011;57524;48.312;7.938;2022-09-09T10:59:19;5.18;;;1.00;;
70157;SDS011;57524;48.312;7.938;2022-09-09T11:01:50;3.10;;;0.88;;
70157;SDS011;57524;48.312;7.938;2022-09-09T11:04:21;3.72;;;1.10;;
70157;SDS011;57524;48.312;7.938;2022-09-09T11:06:52;3.97;;;1.10;;
70157;SDS011;57524;48.312;7.938;2022-09-09T11:09:21;4.13;;;1.08;;
70157;SDS011;57524;48.312;7.938;2022-09-09T11:11:51;5.50;;;1.30;;
70157;SDS011;57524;48.312;7.938;2022-09-09T11:14:21;4.50;;;1.08;;
70157;SDS011;57524;48.312;7.938;2022-09-09T11:16:53;3.75;;;1.10;;
70157;SDS011;57524;48.312;7.938;2022-09-09T11:19:26;5.10;;;1.25;;
70157;SDS011;57524;48.312;7.938;2022-09-09T11:21:58;4.35;;;1.30;;
70157;SDS011;57524;48.312;7.938;2022-09-09T11:24:29;4.18;;;1.00;;
70157;SDS011;57524;48.312;7.938;2022-09-09T11:27:00;4.25;;;1.20;;
70157;SDS011;57524;48.312;7.938;2022-09-09T11:32:45;4.47;;;1.00;;
70157;SDS011;57524;48.312;7.938;2022-09-09T11:35:30;5.53;;;1.10;;
70157;SDS011;57524;48.312;7.938;2022-09-09T11:38:15;4.93;;;1.00;;
70157;SDS011;57524;48.312;7.938;2022-09-09T11:40:45;5.18;;;1.10;;
70157;SDS011;57524;48.312;7.938;2022-09-09T11:43:13;4.93;;;1.20;;
70157;SDS011;57524;48.312;7.938;2022-09-09T11:45:49;4.35;;;0.95;;
70157;SDS011;57524;48.312;7.938;2022-09-09T11:48:25;4.85;;;1.00;;
70157;SDS011;57524;48.312;7.938;2022-09-09T11:50:59;4.18;;;1.08;;
70157;SDS011;57524;48.312;7.938;2022-09-09T11:53:31;4.55;;;0.90;;
70157;SDS011;57524;48.312;7.938;2022-09-09T11:56:05;3.22;;;0.77;;
70157;SDS011;57524;48.312;7.938;2022-09-09T11:58:38;3.10;;;0.77;;
70157;SDS011;57524;48.312;7.938;2022-09-09T12:01:26;3.13;;;0.70;;
70157;SDS011;57524;48.312;7.938;2022-09-09T12:06:43;3.83;;;0.70;;
70157;SDS011;57524;48.312;7.938;2022-09-09T12:09:19;4.93;;;0.80;;
70157;SDS011;57524;48.312;7.938;2022-09-09T12:11:51;4.70;;;0.90;;
70157;SDS011;57524;48.312;7.938;2022-09-09T12:14:22;3.47;;;0.70;;
70157;SDS011;57524;48.312;7.938;2022-09-09T12:17:08;5.50;;;0.80;;
70157;SDS011;57524;48.312;7.938;2022-09-09T12:19:36;3.92;;;0.60;;
70157;SDS011;57524;48.312;7.938;2022-09-09T12:22:03;3.88;;;0.90;;
70157;SDS011;57524;48.312;7.938;2022-09-09T12:24:43;6.07;;;0.75;;
70157;SDS011;57524;48.312;7.938;2022-09-09T12:27:16;2.90;;;0.60;;
70157;SDS011;57524;48.312;7.938;2022-09-09T12:29:50;4.30;;;0.80;;
70157;SDS011;57524;48.312;7.938;2022-09-09T12:32:25;3.83;;;0.70;;
70157;SDS011;57524;48.312;7.938;2022-09-09T12:34:55;3.63;;;0.73;;
70157;SDS011;57524;48.312;7.938;2022-09-09T12:37:26;3.33;;;0.85;;
70157;SDS011;57524;48.312;7.938;2022-09-09T12:40:00;3.92;;;0.90;;
70157;SDS011;57524;48.312;7.938;2022-09-09T12:42:29;3.95;;;0.90;;
70157;SDS011;57524;48.312;7.938;2022-09-09T12:44:58;4.25;;;1.00;;
70157;SDS011;57524;48.312;7.938;2022-09-09T12:47:27;4.57;;;0.90;;
70157;SDS011;57524;48.312;7.938;2022-09-09T12:50:02;4.53;;;0.90;;
70157;SDS011;57524;48.312;7.938;2022-09-09T12:52:30;4.78;;;0.77;;
70157;SDS011;57524;48.312;7.938;2022-09-09T12:55:01;3.58;;;0.75;;
70157;SDS011;57524;48.312;7.938;2022-09-09T12:57:31;4.78;;;0.68;;
70157;SDS011;57524;48.312;7.938;2022-09-09T13:00:04;3.67;;;0.60;;
70157;SDS011;57524;48.312;7.938;2022-09-09T13:02:35;2.88;;;0.70;;
70157;SDS011;57524;48.312;7.938;2022-09-09T13:05:13;3.88;;;0.80;;
70157;SDS011;57524;48.312;7.938;2022-09-09T13:07:42;4.22;;;1.05;;
70157;SDS011;57524;48.312;7.938;2022-09-09T13:10:12;4.70;;;1.02;;
70157;SDS011;57524;48.312;7.938;2022-09-09T13:12:39;4.45;;;0.80;;
70157;SDS011;57524;48.312;7.938;2022-09-09T13:15:10;3.88;;;0.77;;
70157;SDS011;57524;48.312;7.938;2022-09-09T13:17:49;3.47;;;0.80;;
70157;SDS011;57524;48.312;7.938;2022-09-09T13:20:18;4.50;;;0.82;;
70157;SDS011;57524;48.312;7.938;2022-09-09T13:22:46;4.65;;;1.00;;
70157;SDS011;57524;48.312;7.938;2022-09-09T13:25:20;3.97;;;0.80;;
70157;SDS011;57524;48.312;7.938;2022-09-09T13:27:51;3.28;;;0.77;;
70157;SDS011;57524;48.312;7.938;2022-09-09T13:30:21;4.10;;;0.70;;
70157;SDS011;57524;48.312;7.938;2022-09-09T13:32:59;4.78;;;0.80;;
70157;SDS011;57524;48.312;7.938;2022-09-09T13:35:27;4.38;;;0.90;;
70157;SDS011;57524;48.312;7.938;2022-09-09T13:37:54;2.92;;;0.60;;
70157;SDS011;57524;48.312;7.938;2022-09-09T13:40:23;2.92;;;0.60;;
70157;SDS011;57524;48.312;7.938;2022-09-09T13:42:51;2.55;;;0.50;;
70157;SDS011;57524;48.312;7.938;2022-09-09T13:45:21;2.65;;;0.60;;
70157;SDS011;57524;48.312;7.938;2022-09-09T13:47:51;4.30;;;0.70;;
70157;SDS011;57524;48.312;7.938;2022-09-09T13:50:21;3.97;;;0.70;;
70157;SDS011;57524;48.312;7.938;2022-09-09T13:52:48;2.95;;;0.65;;
70157;SDS011;57524;48.312;7.938;2022-09-09T13:55:16;3.53;;;0.70;;
70157;SDS011;57524;48.312;7.938;2022-09-09T13:57:51;3.47;;;0.60;;
70157;SDS011;57524;48.312;7.938;2022-09-09T14:00:18;3.88;;;0.80;;
70157;SDS011;57524;48.312;7.938;2022-09-09T14:02:45;4.70;;;0.90;;
70157;SDS011;57524;48.312;7.938;2022-09-09T14:05:12;3.92;;;0.70;;
70157;SDS011;57524;48.312;7.938;2022-09-09T14:07:40;3.88;;;0.60;;
70157;SDS011;57524;48.312;7.938;2022-09-09T14:10:07;4.53;;;0.70;;
70157;SDS011;57524;48.312;7.938;2022-09-09T14:12:34;4.88;;;0.80;;
70157;SDS011;57524;48.312;7.938;2022-09-09T14:15:03;4.63;;;0.70;;
70157;SDS011;57524;48.312;7.938;2022-09-09T14:17:30;3.20;;;0.60;;
70157;SDS011;57524;48.312;7.938;2022-09-09T14:19:57;2.72;;;0.50;;
70157;SDS011;57524;48.312;7.938;2022-09-09T14:22:24;3.30;;;0.55;;
70157;SDS011;57524;48.312;7.938;2022-09-09T14:24:51;2.17;;;0.50;;
70157;SDS011;57524;48.312;7.938;2022-09-09T14:27:18;3.80;;;0.60;;
70157;SDS011;57524;48.312;7.938;2022-09-09T14:29:44;3.00;;;0.52;;
70157;SDS011;57524;48.312;7.938;2022-09-09T14:32:12;3.03;;;0.50;;
70157;SDS011;57524;48.312;7.938;2022-09-09T14:34:39;2.83;;;0.40;;
70157;SDS011;57524;48.312;7.938;2022-09-09T14:37:05;2.55;;;0.50;;
70157;SDS011;57524;48.312;7.938;2022-09-09T14:39:32;3.20;;;0.50;;
70157;SDS011;57524;48.312;7.938;2022-09-09T14:41:59;4.50;;;0.60;;
70157;SDS011;57524;48.312;7.938;2022-09-09T14:44:27;3.53;;;0.50;;
70157;SDS011;57524;48.312;7.938;2022-09-09T14:46:54;2.92;;;0.52;;
70157;SDS011;57524;48.312;7.938;2022-09-09T14:49:22;4.45;;;0.52;;
70157;SDS011;57524;48.312;7.938;2022-09-09T14:51:48;3.30;;;0.45;;
70157;SDS011;57524;48.312;7.938;2022-09-09T14:54:15;3.85;;;0.63;;
70157;SDS011;57524;48.312;7.938;2022-09-09T14:56:41;4.32;;;0.80;;
70157;SDS011;57524;48.312;7.938;2022-09-09T14:59:08;3.20;;;0.80;;
70157;SDS011;57524;48.312;7.938;2022-09-09T15:01:34;3.55;;;0.70;;
70157;SDS011;57524;48.312;7.938;2022-09-09T15:04:02;3.33;;;0.65;;
70157;SDS011;57524;48.312;7.938;2022-09-09T15:06:32;5.40;;;0.68;;
70157;SDS011;57524;48.312;7.938;2022-09-09T15:09:01;3.78;;;0.70;;
70157;SDS011;57524;48.312;7.938;2022-09-09T15:11:29;3.72;;;0.70;;
70157;SDS011;57524;48.312;7.938;2022-09-09T15:13:57;2.42;;;0.50;;
70157;SDS011;57524;48.312;7.938;2022-09-09T15:16:25;3.07;;;0.50;;
70157;SDS011;57524;48.312;7.938;2022-09-09T15:18:54;2.70;;;0.60;;
70157;SDS011;57524;48.312;7.938;2022-09-09T15:21:22;3.33;;;0.70;;
70157;SDS011;57524;48.312;7.938;2022-09-09T15:23:53;3.53;;;0.52;;
70157;SDS011;57524;48.312;7.938;2022-09-09T15:26:20;3.05;;;0.60;;
70157;SDS011;57524;48.312;7.938;2022-09-09T15:28:47;3.13;;;0.60;;
70157;SDS011;57524;48.312;7.938;2022-09-09T15:31:15;2.90;;;0.70;;
70157;SDS011;57524;48.312;7.938;2022-09-09T15:33:46;3.83;;;0.80;;
70157;SDS011;57524;48.312;7.938;2022-09-09T15:36:14;2.88;;;0.60;;
70157;SDS011;57524;48.312;7.938;2022-09-09T15:38:42;3.95;;;0.60;;